Time;durP1;ratioP1;P1;durP2;ratioP2;P2;SDS_P1;SDS_P2;PMS_P1;PMS_P2;Temp;Humidity;BMP_temperature;BMP_pressure;BME280_temperature;BME280_humidity;BME280_pressure;Samples;Min_cycle;Max_cycle;Signal;HPM_P1;HPM_P2
2021/12/11 00:05:02;;;;;;;0.20;0.07;;;8.30;99.90;;;;;;20824445;28;20213;-72
2021/12/11 00:15:30;;;;;;;0.20;0.03;;;7.90;99.90;;;;;;20801174;28;20234;-71
2021/12/11 00:25:41;;;;;;;0.20;0.00;;;7.60;99.90;;;;;;20782543;28;20658;-71
2021/12/11 00:35:52;;;;;;;0.20;0.10;;;7.50;99.90;;;;;;20814581;28;20221;-72
2021/12/11 00:45:58;;;;;;;0.20;0.00;;;7.40;99.90;;;;;;20815342;28;20733;-72
2021/12/11 00:56:09;;;;;;;0.20;0.00;;;7.20;99.90;;;;;;20845564;28;20272;-71
2021/12/11 01:06:16;;;;;;;0.20;0.10;;;7.20;99.90;;;;;;20878975;22;20239;-66
2021/12/11 01:16:21;;;;;;;0.20;0.10;;;6.90;99.90;;;;;;20892374;28;20229;-66
2021/12/11 01:26:25;;;;;;;0.20;0.07;;;6.70;99.90;;;;;;20890718;28;20657;-65
2021/12/11 01:36:31;;;;;;;0.20;0.00;;;6.70;99.90;;;;;;20901144;28;20231;-67
2021/12/11 01:46:35;;;;;;;0.20;0.10;;;6.40;99.90;;;;;;20902567;28;20190;-65
2021/12/11 01:56:42;;;;;;;0.20;0.00;;;6.40;99.90;;;;;;20902054;28;20221;-66
2021/12/11 02:06:50;;;;;;;0.20;0.10;;;6.70;99.90;;;;;;20900582;28;20236;-67
2021/12/11 02:16:59;;;;;;;0.20;0.03;;;6.70;99.90;;;;;;20900520;28;20229;-67
2021/12/11 02:27:09;;;;;;;0.20;0.00;;;6.40;99.90;;;;;;20881866;28;20201;-67
2021/12/11 02:37:16;;;;;;;0.20;0.10;;;6.40;99.90;;;;;;20900059;28;20335;-66
2021/12/11 02:47:26;;;;;;;0.20;0.00;;;6.50;99.90;;;;;;20900250;28;20212;-66
2021/12/11 02:57:35;;;;;;;0.20;0.10;;;6.20;99.90;;;;;;20898862;28;20225;-67
2021/12/11 03:07:44;;;;;;;0.20;0.10;;;6.00;99.90;;;;;;20881176;28;20252;-67
2021/12/11 03:17:48;;;;;;;0.20;0.00;;;6.20;99.90;;;;;;20908290;28;20221;-67
2021/12/11 03:27:54;;;;;;;0.20;0.10;;;5.90;99.90;;;;;;20914423;28;20193;-66
2021/12/11 03:37:58;;;;;;;0.20;0.10;;;6.00;99.90;;;;;;20911120;28;20725;-65
2021/12/11 03:48:07;;;;;;;0.20;0.00;;;5.80;99.90;;;;;;20911375;28;20761;-67
2021/12/11 03:58:11;;;;;;;0.20;0.10;;;5.80;99.90;;;;;;20910590;28;20561;-66
2021/12/11 04:08:19;;;;;;;0.20;0.10;;;6.10;99.90;;;;;;20911372;28;20333;-66
2021/12/11 04:18:23;;;;;;;0.20;0.10;;;5.90;99.90;;;;;;20908073;28;20231;-66
2021/12/11 04:28:30;;;;;;;0.20;0.10;;;6.10;99.90;;;;;;20908310;28;20243;-66
2021/12/11 04:38:34;;;;;;;0.20;0.10;;;5.90;99.90;;;;;;20882282;28;20279;-65
2021/12/11 04:48:50;;;;;;;0.20;0.00;;;6.00;99.90;;;;;;20808104;28;20674;-67
2021/12/11 04:59:13;;;;;;;0.20;0.10;;;6.00;99.90;;;;;;20824259;28;20230;-66
2021/12/11 05:09:26;;;;;;;0.20;0.10;;;5.80;99.90;;;;;;20500265;29;20738;-71
2021/12/11 05:19:30;;;;;;;0.20;0.10;;;5.90;99.90;;;;;;20503734;29;20269;-70
2021/12/11 05:29:35;;;;;;;0.20;0.00;;;5.90;99.90;;;;;;20503821;29;20260;-71
2021/12/11 05:39:40;;;;;;;0.20;0.10;;;5.80;99.90;;;;;;20525487;28;20220;-71
2021/12/11 05:49:46;;;;;;;0.20;0.00;;;5.90;99.90;;;;;;20500830;29;20204;-71
2021/12/11 05:59:51;;;;;;;0.20;0.10;;;5.70;99.90;;;;;;20500933;28;20223;-71
2021/12/11 06:09:59;;;;;;;0.20;0.00;;;5.70;99.90;;;;;;20577277;28;20543;-71
2021/12/11 06:20:05;;;;;;;0.20;0.10;;;5.80;99.90;;;;;;20577014;28;20232;-71
2021/12/11 06:30:13;;;;;;;0.20;0.00;;;5.90;99.90;;;;;;20576289;28;20239;-71
2021/12/11 06:40:17;;;;;;;0.20;0.00;;;5.80;99.90;;;;;;20574582;28;20630;-72
2021/12/11 06:50:22;;;;;;;0.20;0.10;;;6.00;99.90;;;;;;20574269;28;20196;-70
2021/12/11 07:00:28;;;;;;;0.20;0.00;;;5.80;99.90;;;;;;20556454;28;20239;-71
2021/12/11 07:10:34;;;;;;;0.20;0.00;;;6.00;99.90;;;;;;20571732;28;20555;-72
2021/12/11 07:20:37;;;;;;;0.20;0.10;;;6.00;99.90;;;;;;20574339;28;20319;-72
2021/12/11 07:30:47;;;;;;;0.20;0.00;;;6.40;99.90;;;;;;20572401;28;20227;-72
2021/12/11 07:40:53;;;;;;;0.20;0.00;;;6.50;99.90;;;;;;20571476;28;20223;-70
2021/12/11 07:50:58;;;;;;;0.20;0.00;;;6.80;99.90;;;;;;20571943;28;20228;-71
2021/12/11 08:01:05;;;;;;;0.20;0.00;;;7.20;99.90;;;;;;20574668;28;20240;-71
2021/12/11 08:11:13;;;;;;;0.20;0.10;;;7.10;99.90;;;;;;20584494;28;20208;-70
2021/12/11 08:21:17;;;;;;;0.20;0.00;;;7.50;99.90;;;;;;20584028;28;20303;-73
2021/12/11 08:31:23;;;;;;;0.20;0.10;;;8.00;99.90;;;;;;20567214;28;20587;-71
2021/12/11 08:41:29;;;;;;;0.20;0.00;;;8.80;99.90;;;;;;20564215;28;20227;-72
2021/12/11 08:51:39;;;;;;;0.20;0.10;;;9.50;99.90;;;;;;20563242;28;20232;-69
2021/12/11 09:01:48;;;;;;;0.20;0.00;;;10.20;99.90;;;;;;20579331;28;20286;-72
2021/12/11 09:11:57;;;;;;;0.20;0.00;;;10.90;99.90;;;;;;20579282;28;20197;-71
2021/12/11 09:22:05;;;;;;;0.20;0.10;;;11.10;99.90;;;;;;20579458;28;20322;-70
2021/12/11 09:32:18;;;;;;;0.20;0.10;;;11.30;99.90;;;;;;20578773;28;20196;-70
2021/12/11 09:42:21;;;;;;;0.20;0.10;;;11.70;99.90;;;;;;20558831;28;20299;-71
2021/12/11 09:52:28;;;;;;;0.20;0.00;;;12.00;99.90;;;;;;20610132;28;20215;-71
2021/12/11 10:02:34;;;;;;;0.20;0.10;;;12.50;99.90;;;;;;20633994;28;20318;-71
2021/12/11 10:12:46;;;;;;;0.20;0.10;;;12.90;99.90;;;;;;20601554;28;20287;-71
2021/12/11 10:22:52;;;;;;;0.20;0.10;;;13.40;99.90;;;;;;20572981;28;20235;-73
2021/12/11 10:33:08;;;;;;;0.20;0.00;;;13.80;99.90;;;;;;20632697;28;20548;-72
2021/12/11 10:43:15;;;;;;;0.20;0.10;;;14.50;99.90;;;;;;20597972;28;20243;-71
2021/12/11 10:53:26;;;;;;;0.20;0.00;;;15.40;99.90;;;;;;20570901;28;20196;-73
2021/12/11 11:03:32;;;;;;;0.20;0.10;;;16.30;99.90;;;;;;20568599;28;20322;-71
2021/12/11 11:13:37;;;;;;;0.20;0.03;;;16.80;99.90;;;;;;20532074;28;20291;-71
2021/12/11 11:23:44;;;;;;;0.20;0.10;;;17.10;99.90;;;;;;20490680;28;20697;-72
2021/12/11 11:33:50;;;;;;;0.20;0.10;;;17.00;99.90;;;;;;20493625;28;20224;-73
2021/12/11 11:43:55;;;;;;;0.20;0.10;;;17.60;99.90;;;;;;20506281;28;20236;-73
2021/12/11 11:54:01;;;;;;;0.20;0.00;;;17.90;99.90;;;;;;20487323;29;20227;-72
2021/12/11 12:04:11;;;;;;;0.20;0.10;;;15.70;99.90;;;;;;20544095;28;20334;-71
2021/12/11 12:14:19;;;;;;;0.20;0.10;;;15.30;99.90;;;;;;20566580;28;20216;-72
2021/12/11 12:24:24;;;;;;;0.20;0.10;;;15.10;99.90;;;;;;20582883;28;20292;-72
2021/12/11 12:34:30;;;;;;;0.20;0.10;;;15.40;99.90;;;;;;20583597;28;20915;-69
2021/12/11 12:44:35;;;;;;;3.17;2.97;;;18.00;99.90;;;;;;20576702;28;20211;-71
2021/12/11 12:54:40;;;;;;;0.20;0.07;;;18.50;99.90;;;;;;20580150;28;20227;-70
2021/12/11 13:04:49;;;;;;;0.20;0.10;;;18.60;99.90;;;;;;20578929;28;20701;-73
2021/12/11 13:14:57;;;;;;;0.20;0.10;;;18.20;99.90;;;;;;20579032;28;20270;-71
2021/12/11 13:25:05;;;;;;;0.27;0.27;;;18.30;99.90;;;;;;20576658;28;20549;-70
2021/12/11 13:35:14;;;;;;;0.20;0.10;;;17.90;99.90;;;;;;20574415;28;20266;-71
2021/12/11 13:45:21;;;;;;;0.20;0.10;;;18.40;99.90;;;;;;20578853;28;20196;-70
2021/12/11 13:55:26;;;;;;;0.20;0.10;;;18.60;99.90;;;;;;20559416;28;20720;-69
2021/12/11 14:05:35;;;;;;;0.20;0.10;;;18.80;99.90;;;;;;20568964;28;20227;-68
2021/12/11 14:15:42;;;;;;;0.20;0.00;;;19.90;99.90;;;;;;20517053;28;20327;-70
2021/12/11 14:25:47;;;;;;;0.20;0.07;;;18.50;99.90;;;;;;20493143;29;20196;-71
2021/12/11 14:35:54;;;;;;;0.20;0.10;;;17.10;99.90;;;;;;20492622;29;20353;-71
2021/12/11 14:45:59;;;;;;;0.20;0.00;;;16.00;99.90;;;;;;20491584;29;20295;-70
2021/12/11 14:56:10;;;;;;;0.20;0.10;;;15.40;99.90;;;;;;20491664;29;20225;-70
2021/12/11 15:06:14;;;;;;;0.57;0.47;;;15.80;99.90;;;;;;20490099;28;20304;-72
2021/12/11 15:16:25;;;;;;;0.20;0.10;;;15.60;99.90;;;;;;20565386;28;20607;-71
2021/12/11 15:26:30;;;;;;;0.60;0.60;;;16.40;99.90;;;;;;20583863;28;20199;-72
2021/12/11 15:36:37;;;;;;;0.20;0.10;;;18.00;99.90;;;;;;20585464;28;20224;-72
2021/12/11 15:46:41;;;;;;;0.20;0.10;;;16.30;99.90;;;;;;20586353;28;20197;-72
2021/12/11 15:56:51;;;;;;;0.20;0.00;;;15.60;99.90;;;;;;20583871;28;20223;-71
2021/12/11 16:06:58;;;;;;;0.20;0.10;;;14.50;99.90;;;;;;20582955;28;20228;-71
2021/12/11 16:17:07;;;;;;;0.20;0.10;;;13.60;99.90;;;;;;20584707;28;20255;-72
2021/12/11 16:27:11;;;;;;;0.20;0.03;;;13.00;99.90;;;;;;20619102;28;20207;-73
2021/12/11 16:37:28;;;;;;;0.20;0.10;;;12.60;99.90;;;;;;20582345;28;20235;-71
2021/12/11 16:47:32;;;;;;;26.53;6.40;;;11.50;99.90;;;;;;20580640;28;20196;-70
2021/12/11 16:57:38;;;;;;;0.20;0.10;;;11.00;99.90;;;;;;20576871;28;20228;-70
2021/12/11 17:07:43;;;;;;;0.20;0.10;;;10.50;99.90;;;;;;20575225;28;20255;-71
2021/12/11 17:17:49;;;;;;;0.20;0.20;;;10.40;99.90;;;;;;20575829;28;20315;-70
2021/12/11 17:27:53;;;;;;;0.20;0.00;;;10.10;99.90;;;;;;20575052;28;20208;-72
2021/12/11 17:37:58;;;;;;;1.80;1.70;;;10.00;99.90;;;;;;20573902;28;20227;-71
2021/12/11 17:48:02;;;;;;;0.20;0.10;;;9.70;99.90;;;;;;20574895;28;20227;-69
2021/12/11 17:58:07;;;;;;;0.20;0.00;;;9.80;99.90;;;;;;20573452;28;20232;-72
2021/12/11 18:08:14;;;;;;;0.20;0.10;;;9.70;99.90;;;;;;20572145;28;20705;-73
2021/12/11 18:18:22;;;;;;;0.50;0.47;;;9.50;99.90;;;;;;20571616;28;20310;-71
2021/12/11 18:28:27;;;;;;;0.20;0.10;;;9.60;99.90;;;;;;20554161;28;20227;-68
2021/12/11 18:38:32;;;;;;;3.23;2.00;;;9.30;99.90;;;;;;20570272;28;20330;-70
2021/12/11 18:48:36;;;;;;;0.87;0.87;;;9.40;99.90;;;;;;20570133;28;20291;-69
2021/12/11 18:58:46;;;;;;;0.50;0.50;;;9.40;99.90;;;;;;20569988;28;20227;-72
2021/12/11 19:08:51;;;;;;;0.20;0.10;;;9.20;99.90;;;;;;20569979;28;20259;-71
2021/12/11 19:18:56;;;;;;;0.20;0.10;;;9.40;99.90;;;;;;20570473;28;20231;-71
2021/12/11 19:29:01;;;;;;;0.20;0.10;;;9.60;99.90;;;;;;20569582;28;20207;-69
2021/12/11 19:39:15;;;;;;;0.20;0.10;;;9.60;99.90;;;;;;20568918;28;20219;-71
2021/12/11 19:49:20;;;;;;;0.20;0.10;;;10.00;99.90;;;;;;20569188;28;20200;-70
2021/12/11 19:59:28;;;;;;;0.20;0.10;;;10.20;99.90;;;;;;20577027;28;20231;-73
2021/12/11 20:09:37;;;;;;;0.20;0.10;;;10.60;99.90;;;;;;20582393;28;20196;-72
2021/12/11 20:19:44;;;;;;;0.20;0.00;;;11.00;99.90;;;;;;20582007;28;20627;-73
2021/12/11 20:29:52;;;;;;;0.20;0.10;;;11.10;99.90;;;;;;20579402;28;20363;-74
2021/12/11 20:39:57;;;;;;;0.20;0.10;;;11.10;99.90;;;;;;20580231;28;20554;-72
2021/12/11 20:50:03;;;;;;;0.20;0.10;;;11.20;99.90;;;;;;20581464;28;20220;-74
2021/12/11 21:00:11;;;;;;;1.80;1.70;;;11.20;99.90;;;;;;20575436;28;20777;-73
2021/12/11 21:10:21;;;;;;;0.20;0.10;;;11.10;99.90;;;;;;20580510;28;20203;-73
2021/12/11 21:20:38;;;;;;;0.20;0.10;;;11.30;99.90;;;;;;20563296;28;20216;-74
2021/12/11 21:30:46;;;;;;;0.20;0.10;;;11.30;99.90;;;;;;20579672;28;20195;-74
2021/12/11 21:40:56;;;;;;;0.20;0.10;;;11.20;99.90;;;;;;20579526;28;20226;-74
2021/12/11 21:51:13;;;;;;;4.83;4.63;;;11.00;99.90;;;;;;20578698;28;20235;-72
2021/12/11 22:01:22;;;;;;;0.20;0.10;;;10.80;99.90;;;;;;20577359;28;20727;-74
2021/12/11 22:11:28;;;;;;;0.20;0.00;;;10.60;99.90;;;;;;20572676;28;20642;-75
2021/12/11 22:21:35;;;;;;;0.20;0.10;;;10.50;99.90;;;;;;20570696;28;20690;-73
2021/12/11 22:31:42;;;;;;;0.20;0.10;;;10.80;99.90;;;;;;20576473;28;20192;-75
2021/12/11 22:41:51;;;;;;;0.20;0.10;;;10.70;99.90;;;;;;20574779;28;20310;-73
2021/12/11 22:51:57;;;;;;;0.20;0.00;;;10.70;99.90;;;;;;20575023;28;20636;-74
2021/12/11 23:02:09;;;;;;;0.20;0.10;;;10.90;99.90;;;;;;20573651;28;20246;-75
2021/12/11 23:12:17;;;;;;;0.20;0.10;;;11.10;99.90;;;;;;20572569;28;20951;-74
2021/12/11 23:22:30;;;;;;;0.20;0.10;;;11.10;99.90;;;;;;20557289;28;20230;-73
2021/12/11 23:32:39;;;;;;;0.20;0.10;;;11.20;99.90;;;;;;20579879;28;20203;-73
2021/12/11 23:42:49;;;;;;;0.20;0.00;;;11.10;99.90;;;;;;20591732;28;20224;-73
2021/12/11 23:52:53;;;;;;;0.20;0.10;;;11.20;99.90;;;;;;20591720;28;20204;-72
